Time;durP1;ratioP1;P1;durP2;ratioP2;P2;SDS_P1;SDS_P2;PMS_P1;PMS_P2;Temp;Humidity;BMP_temperature;BMP_pressure;BME280_temperature;BME280_humidity;BME280_pressure;Samples;Min_cycle;Max_cycle;Signal;HPM_P1;HPM_P2
2021/05/19 00:00:41;;;;;;;14.13;10.73;;;;;;;9.98;100.00;100699.81;4966344;28;20237;-76
2021/05/19 00:03:06;;;;;;;11.40;10.20;;;;;;;9.86;100.00;100702.72;4967363;29;20210;-76
2021/05/19 00:05:34;;;;;;;13.37;11.17;;;;;;;10.05;100.00;100703.91;4967508;28;20233;-75
2021/05/19 00:08:02;;;;;;;13.70;11.13;;;;;;;10.08;100.00;100697.94;4952590;28;20190;-76
2021/05/19 00:10:27;;;;;;;12.70;11.30;;;;;;;10.01;100.00;100694.66;4960034;28;20643;-76
2021/05/19 00:12:53;;;;;;;15.13;10.90;;;;;;;9.94;100.00;100698.72;4965987;28;20225;-77
2021/05/19 00:15:20;;;;;;;12.17;10.63;;;;;;;9.88;100.00;100695.16;4966821;28;20187;-76
2021/05/19 00:17:46;;;;;;;12.77;10.20;;;;;;;9.78;100.00;100700.53;4982826;28;20189;-75
2021/05/19 00:20:15;;;;;;;12.90;10.70;;;;;;;9.82;100.00;100700.84;4966242;28;20198;-76
2021/05/19 00:22:45;;;;;;;13.47;10.67;;;;;;;9.62;100.00;100701.56;4934463;29;20223;-75
2021/05/19 00:25:11;;;;;;;13.77;11.17;;;;;;;9.84;100.00;100713.03;4951266;28;20207;-75
2021/05/19 00:27:37;;;;;;;12.50;10.20;;;;;;;9.55;100.00;100715.63;4983086;28;20226;-76
2021/05/19 00:30:06;;;;;;;13.73;10.90;;;;;;;9.46;100.00;100717.22;4966774;29;20183;-76
2021/05/19 00:32:32;;;;;;;11.77;9.83;;;;;;;9.37;100.00;100714.16;4964179;28;20294;-75
2021/05/19 00:34:57;;;;;;;12.17;10.03;;;;;;;9.26;100.00;100706.25;4967500;29;20180;-76
2021/05/19 00:37:23;;;;;;;13.93;10.60;;;;;;;9.24;100.00;100711.91;4976654;28;20278;-75
2021/05/19 00:39:51;;;;;;;12.90;10.40;;;;;;;9.47;100.00;100713.41;4967599;28;20238;-75
2021/05/19 00:42:17;;;;;;;12.00;10.37;;;;;;;9.41;100.00;100720.69;4981333;28;20234;-75
2021/05/19 00:44:45;;;;;;;12.23;10.30;;;;;;;9.33;100.00;100714.97;4970351;28;20198;-75
2021/05/19 00:47:10;;;;;;;13.10;10.63;;;;;;;9.39;100.00;100713.91;4985395;28;20226;-75
2021/05/19 00:49:36;;;;;;;11.13;9.37;;;;;;;9.36;100.00;100717.16;4986095;28;20199;-76
2021/05/19 00:52:05;;;;;;;10.70;9.30;;;;;;;9.46;100.00;100718.00;4949782;29;20237;-75
2021/05/19 00:54:31;;;;;;;10.20;9.10;;;;;;;9.31;100.00;100722.53;4967406;28;20211;-75
2021/05/19 00:57:02;;;;;;;11.30;9.20;;;;;;;9.19;100.00;100721.09;4951126;29;20223;-75
2021/05/19 00:59:30;;;;;;;11.90;9.10;;;;;;;9.16;100.00;100717.03;4951538;29;20881;-76
2021/05/19 01:02:02;;;;;;;10.47;9.27;;;;;;;9.11;100.00;100721.59;4935780;29;20234;-76
2021/05/19 01:04:27;;;;;;;10.60;8.87;;;;;;;9.04;100.00;100724.53;4966817;29;20196;-75
2021/05/19 01:07:24;;;;;;;11.33;9.70;;;;;;;9.05;100.00;100718.03;4966025;28;20276;-75
2021/05/19 01:09:52;;;;;;;11.07;9.90;;;;;;;8.84;100.00;100720.84;4964072;28;20254;-77
2021/05/19 01:12:21;;;;;;;10.30;9.20;;;;;;;8.87;100.00;100713.03;4952160;28;20233;-75
2021/05/19 01:14:52;;;;;;;10.50;8.90;;;;;;;8.92;100.00;100715.78;4970715;28;20171;-75
2021/05/19 01:17:21;;;;;;;9.83;8.83;;;;;;;8.83;100.00;100717.34;4955323;28;20230;-75
2021/05/19 01:19:50;;;;;;;11.37;9.87;;;;;;;8.90;100.00;100720.66;4985714;28;20186;-75
2021/05/19 01:22:20;;;;;;;11.83;9.97;;;;;;;8.93;100.00;100722.81;4969708;28;20241;-76
2021/05/19 01:24:47;;;;;;;12.73;10.07;;;;;;;8.88;100.00;100720.09;4986097;28;20656;-75
2021/05/19 01:27:13;;;;;;;13.20;10.00;;;;;;;8.89;100.00;100721.72;4953367;28;20715;-75
2021/05/19 01:29:41;;;;;;;11.00;9.53;;;;;;;8.87;100.00;100717.63;4985154;28;20314;-75
2021/05/19 01:32:06;;;;;;;11.13;9.37;;;;;;;8.78;100.00;100719.19;4937237;28;20237;-75
2021/05/19 01:34:32;;;;;;;11.90;9.23;;;;;;;8.82;100.00;100723.81;4969317;28;20198;-76
2021/05/19 01:37:03;;;;;;;12.33;9.40;;;;;;;8.75;100.00;100718.88;4969695;28;20253;-76
2021/05/19 01:39:35;;;;;;;12.33;8.87;;;;;;;8.59;100.00;100719.81;4967586;28;20195;-75
2021/05/19 01:42:05;;;;;;;11.97;9.00;;;;;;;8.35;100.00;100723.97;4946737;28;20231;-75
2021/05/19 01:44:32;;;;;;;12.57;9.83;;;;;;;8.30;100.00;100726.63;4970395;28;20200;-76
2021/05/19 01:47:03;;;;;;;9.43;8.17;;;;;;;8.21;100.00;100722.72;4984869;28;20223;-75
2021/05/19 01:49:38;;;;;;;8.00;7.20;;;;;;;8.25;100.00;100728.44;4978878;28;20194;-76
2021/05/19 01:52:06;;;;;;;8.47;7.60;;;;;;;8.21;100.00;100728.13;4968930;28;20606;-75
2021/05/19 01:54:34;;;;;;;8.90;7.93;;;;;;;8.19;100.00;100724.88;4986170;28;20660;-75
2021/05/19 01:57:00;;;;;;;8.67;7.73;;;;;;;8.44;100.00;100728.66;4969991;28;20222;-75
2021/05/19 01:59:27;;;;;;;9.40;8.50;;;;;;;8.37;100.00;100738.06;4956714;28;20187;-76
2021/05/19 02:01:56;;;;;;;10.90;8.73;;;;;;;8.50;100.00;100721.41;4956725;28;20261;-76
2021/05/19 02:04:25;;;;;;;11.17;8.90;;;;;;;8.35;100.00;100726.66;4972696;28;20194;-75
2021/05/19 02:06:57;;;;;;;10.60;9.00;;;;;;;8.26;100.00;100730.91;4957497;28;20233;-75
2021/05/19 02:09:38;;;;;;;8.97;8.07;;;;;;;8.38;100.00;100734.25;4957530;28;20206;-78
2021/05/19 02:12:09;;;;;;;9.33;8.20;;;;;;;8.23;100.00;100731.41;4972499;28;20223;-76
2021/05/19 02:14:38;;;;;;;9.13;7.87;;;;;;;8.19;100.00;100729.47;4954267;29;20179;-76
2021/05/19 02:17:06;;;;;;;9.57;8.13;;;;;;;8.31;100.00;100733.66;4953456;29;20310;-76
2021/05/19 02:19:32;;;;;;;10.27;8.50;;;;;;;8.32;100.00;100734.47;4970520;29;20206;-77
2021/05/19 02:22:01;;;;;;;10.73;8.80;;;;;;;8.37;100.00;100727.22;4937534;29;20242;-77
2021/05/19 02:24:33;;;;;;;10.20;8.80;;;;;;;8.19;100.00;100729.47;4940434;29;20191;-75
2021/05/19 02:27:00;;;;;;;10.20;8.50;;;;;;;8.11;100.00;100733.47;4952740;29;20223;-76
2021/05/19 02:29:29;;;;;;;9.83;8.73;;;;;;;7.95;100.00;100728.09;4963432;28;20202;-76
2021/05/19 02:31:58;;;;;;;11.17;8.93;;;;;;;7.99;100.00;100723.00;4981357;28;20593;-75
2021/05/19 02:34:23;;;;;;;10.70;8.77;;;;;;;8.00;100.00;100724.63;4950711;28;20195;-75
2021/05/19 02:36:53;;;;;;;10.83;9.67;;;;;;;7.95;100.00;100732.66;4988264;28;20237;-76
2021/05/19 02:39:21;;;;;;;11.53;9.20;;;;;;;7.90;100.00;100735.34;4968497;28;20193;-77
2021/05/19 02:41:54;;;;;;;11.60;8.87;;;;;;;7.76;100.00;100734.88;4966222;28;20237;-76
2021/05/19 02:44:22;;;;;;;12.97;9.57;;;;;;;7.79;100.00;100744.41;4990833;28;20193;-76
2021/05/19 02:46:48;;;;;;;14.80;9.97;;;;;;;7.82;100.00;100738.47;4972729;28;20261;-76
2021/05/19 02:49:16;;;;;;;13.43;10.00;;;;;;;7.83;100.00;100740.13;4972417;28;20178;-75
2021/05/19 02:51:44;;;;;;;11.17;9.50;;;;;;;7.76;100.00;100739.47;4988505;28;20236;-75
2021/05/19 02:54:09;;;;;;;12.70;9.63;;;;;;;7.66;100.00;100739.38;4973672;28;20191;-75
2021/05/19 02:56:37;;;;;;;12.70;9.40;;;;;;;7.55;100.00;100745.72;4955765;28;20262;-77
2021/05/19 02:59:04;;;;;;;12.03;9.17;;;;;;;7.57;100.00;100751.69;4953590;29;20305;-76
2021/05/19 03:01:32;;;;;;;10.50;8.77;;;;;;;7.48;100.00;100745.06;4938316;29;20245;-76
2021/05/19 03:04:00;;;;;;;9.60;8.33;;;;;;;7.41;100.00;100744.41;4953819;29;20565;-75
2021/05/19 03:06:28;;;;;;;9.83;8.60;;;;;;;7.50;100.00;100748.34;4970194;28;20309;-76
2021/05/19 03:08:53;;;;;;;10.30;8.40;;;;;;;7.52;100.00;100742.69;4944354;29;20199;-77
2021/05/19 03:11:24;;;;;;;11.30;8.47;;;;;;;7.37;100.00;100745.19;4979112;28;20228;-75
2021/05/19 03:13:52;;;;;;;9.63;7.83;;;;;;;7.33;100.00;100752.97;4991840;28;20218;-76
2021/05/19 03:16:17;;;;;;;9.53;7.97;;;;;;;7.50;100.00;100753.75;4975798;28;20234;-75
2021/05/19 03:18:46;;;;;;;9.23;7.93;;;;;;;7.62;100.00;100757.16;4976503;28;20241;-76
2021/05/19 03:21:12;;;;;;;9.67;8.13;;;;;;;7.48;100.00;100755.88;4973818;28;20598;-77
2021/05/19 03:23:37;;;;;;;8.90;7.83;;;;;;;7.48;100.00;100755.06;4971521;28;20245;-76
2021/05/19 03:26:07;;;;;;;9.27;8.00;;;;;;;7.45;100.00;100759.06;4956435;28;20293;-75
2021/05/19 03:28:33;;;;;;;8.60;7.47;;;;;;;7.34;100.00;100756.47;4975333;28;20245;-77
2021/05/19 03:30:58;;;;;;;9.57;8.33;;;;;;;7.26;100.00;100759.63;4989631;28;20237;-76
2021/05/19 03:33:24;;;;;;;10.27;8.77;;;;;;;7.39;100.00;100753.84;4956400;28;20198;-76
2021/05/19 03:35:50;;;;;;;10.70;8.40;;;;;;;7.28;100.00;100758.28;4972833;28;20237;-76
2021/05/19 03:38:21;;;;;;;9.97;8.87;;;;;;;7.36;100.00;100757.88;4951458;28;20722;-77
2021/05/19 03:40:49;;;;;;;12.70;9.53;;;;;;;7.47;100.00;100756.97;4945135;28;20218;-77
2021/05/19 03:43:15;;;;;;;11.70;9.40;;;;;;;7.54;100.00;100760.28;4994427;28;20270;-75
2021/05/19 03:45:46;;;;;;;13.07;9.70;;;;;;;7.63;100.00;100766.88;5007995;28;20240;-77
2021/05/19 03:48:17;;;;;;;10.87;8.87;;;;;;;7.54;100.00;100773.78;5008371;28;20203;-78
2021/05/19 03:50:45;;;;;;;10.67;8.90;;;;;;;7.50;100.00;100767.25;4992730;28;20217;-76
2021/05/19 03:53:10;;;;;;;10.20;8.70;;;;;;;7.69;100.00;100768.56;4975812;28;20288;-75
2021/05/19 03:55:39;;;;;;;12.00;8.93;;;;;;;7.82;100.00;100763.63;4985122;28;20229;-76
2021/05/19 03:58:04;;;;;;;11.00;8.27;;;;;;;7.88;100.00;100754.50;4994620;28;20173;-75
2021/05/19 04:00:31;;;;;;;9.73;7.47;;;;;;;7.85;100.00;100759.59;4975221;28;20256;-75
2021/05/19 04:02:57;;;;;;;9.10;7.23;;;;;;;7.70;100.00;100764.81;4991668;28;20201;-76
2021/05/19 04:05:32;;;;;;;9.37;7.97;;;;;;;7.69;100.00;100765.88;4975443;28;20233;-75
2021/05/19 04:08:05;;;;;;;11.43;8.20;;;;;;;7.67;100.00;100762.59;5008472;28;20169;-74
2021/05/19 04:10:33;;;;;;;15.27;8.07;;;;;;;7.64;100.00;100770.41;4996748;28;20244;-76
2021/05/19 04:13:05;;;;;;;11.80;7.80;;;;;;;7.62;100.00;100778.78;5004525;28;20229;-74
2021/05/19 04:15:33;;;;;;;9.50;7.70;;;;;;;7.60;100.00;100767.41;5007786;28;20232;-76
2021/05/19 04:17:59;;;;;;;11.27;8.33;;;;;;;7.60;100.00;100780.91;4992017;28;20182;-74
2021/05/19 04:20:27;;;;;;;12.00;8.43;;;;;;;7.57;100.00;100777.91;5006822;28;20232;-76
2021/05/19 04:22:53;;;;;;;15.77;9.03;;;;;;;7.68;100.00;100780.47;4974735;28;20217;-76
2021/05/19 04:25:19;;;;;;;14.57;9.23;;;;;;;7.82;100.00;100784.44;4969870;28;20236;-76
2021/05/19 04:27:46;;;;;;;12.80;9.53;;;;;;;7.96;100.00;100786.50;4976606;28;20228;-75
2021/05/19 04:30:17;;;;;;;12.40;9.33;;;;;;;8.12;100.00;100780.25;5007399;28;20188;-76
2021/05/19 04:32:44;;;;;;;23.80;10.40;;;;;;;7.96;100.00;100789.22;4983023;28;20288;-76
2021/05/19 04:35:20;;;;;;;11.20;9.47;;;;;;;8.21;100.00;100786.84;4989184;28;20187;-75
2021/05/19 04:37:45;;;;;;;12.37;10.20;;;;;;;8.49;100.00;100782.00;4982853;28;20191;-75
2021/05/19 04:40:17;;;;;;;10.60;9.07;;;;;;;8.61;100.00;100790.81;4976854;28;20219;-77
2021/05/19 04:42:47;;;;;;;10.13;9.07;;;;;;;8.87;100.00;100788.88;4955664;28;20208;-78
2021/05/19 04:45:13;;;;;;;9.60;8.53;;;;;;;9.10;100.00;100793.13;5004609;28;20247;-75
2021/05/19 04:47:40;;;;;;;9.53;8.47;;;;;;;9.36;100.00;100795.78;4973161;28;20245;-76
2021/05/19 04:50:07;;;;;;;9.13;7.97;;;;;;;9.59;100.00;100796.16;4977541;28;20218;-74
2021/05/19 04:52:35;;;;;;;11.97;8.97;;;;;;;9.45;100.00;100791.47;4990895;28;20218;-75
2021/05/19 04:55:05;;;;;;;15.87;7.87;;;;;;;9.49;100.00;100798.03;4975794;28;20186;-76
2021/05/19 04:57:33;;;;;;;9.60;8.53;;;;;;;9.57;100.00;100791.00;4976591;28;20222;-76
2021/05/19 05:00:01;;;;;;;11.10;7.80;;;;;;;9.54;100.00;100804.28;4987165;28;20174;-75
2021/05/19 05:02:27;;;;;;;9.10;8.20;;;;;;;9.62;100.00;100799.19;4988690;28;20234;-77
2021/05/19 05:04:54;;;;;;;8.80;7.90;;;;;;;9.83;100.00;100803.63;4988167;28;20186;-75
2021/05/19 05:07:23;;;;;;;9.17;8.23;;;;;;;10.02;100.00;100804.84;4978365;28;20229;-76
2021/05/19 05:09:49;;;;;;;8.53;7.63;;;;;;;10.54;100.00;100799.03;4973594;28;20271;-77
2021/05/19 05:12:19;;;;;;;8.30;7.40;;;;;;;10.68;100.00;100794.72;4953857;28;20628;-78
2021/05/19 05:14:44;;;;;;;8.73;7.83;;;;;;;10.76;100.00;100794.19;4971214;28;20182;-76
2021/05/19 05:17:10;;;;;;;8.60;7.80;;;;;;;10.79;100.00;100796.38;4972697;28;20214;-77
2021/05/19 05:19:35;;;;;;;8.97;8.07;;;;;;;10.88;100.00;100806.44;4989370;28;20209;-76
2021/05/19 05:22:04;;;;;;;9.40;8.43;;;;;;;10.84;100.00;100804.50;4988455;28;20226;-76
2021/05/19 05:24:32;;;;;;;9.57;8.57;;;;;;;10.95;100.00;100806.16;4985019;28;20194;-77
2021/05/19 05:26:58;;;;;;;10.00;9.10;;;;;;;11.00;100.00;100801.53;4979834;28;20234;-78
2021/05/19 05:29:23;;;;;;;14.40;12.90;;;;;;;11.03;100.00;100802.91;4981555;28;20186;-78
2021/05/19 05:31:51;;;;;;;27.07;23.73;;;;;;;10.90;100.00;100808.88;4982305;28;20250;-77
2021/05/19 05:34:17;;;;;;;14.10;12.60;;;;;;;11.11;100.00;100810.53;4985032;28;20206;-78
2021/05/19 05:36:45;;;;;;;12.07;10.80;;;;;;;11.20;100.00;100807.78;4987320;28;20939;-76
2021/05/19 05:39:11;;;;;;;11.87;10.57;;;;;;;11.21;100.00;100806.72;4986944;28;20197;-78
2021/05/19 05:41:42;;;;;;;14.37;11.30;;;;;;;11.35;100.00;100815.94;4980452;28;20222;-78
2021/05/19 05:44:22;;;;;;;12.03;10.83;;;;;;;11.41;100.00;100820.31;4973137;28;20187;-77
2021/05/19 05:46:51;;;;;;;12.77;11.47;;;;;;;11.11;100.00;100824.13;4958714;29;20227;-76
2021/05/19 05:49:19;;;;;;;13.47;12.07;;;;;;;11.38;100.00;100823.56;4973888;29;20179;-75
2021/05/19 05:51:44;;;;;;;13.63;12.20;;;;;;;11.51;100.00;100823.03;4970590;29;20234;-80
2021/05/19 05:54:12;;;;;;;15.00;12.63;;;;;;;11.58;100.00;100831.72;4972065;29;20187;-76
2021/05/19 05:56:40;;;;;;;13.53;11.93;;;;;;;11.53;100.00;100826.28;4952709;28;20238;-77
2021/05/19 05:59:09;;;;;;;13.57;12.17;;;;;;;11.56;100.00;100831.19;4993742;28;20193;-77
2021/05/19 06:01:35;;;;;;;13.40;12.00;;;;;;;11.64;100.00;100825.19;4976306;28;20787;-79
2021/05/19 06:04:02;;;;;;;13.53;9.83;;;;;;;11.68;100.00;100828.97;4960519;28;20186;-76
2021/05/19 06:06:28;;;;;;;13.00;10.30;;;;;;;11.96;100.00;100826.50;4976482;28;20235;-76
2021/05/19 06:08:54;;;;;;;11.77;10.57;;;;;;;11.86;100.00;100834.66;4959592;28;20665;-75
2021/05/19 06:11:21;;;;;;;10.33;9.27;;;;;;;12.10;100.00;100836.47;4968041;28;20244;-76
2021/05/19 06:13:52;;;;;;;9.63;8.70;;;;;;;12.24;100.00;100840.25;4978705;28;20191;-76
2021/05/19 06:16:20;;;;;;;9.30;8.40;;;;;;;12.20;100.00;100844.63;4959155;28;20234;-77
2021/05/19 06:18:46;;;;;;;9.20;8.30;;;;;;;12.02;100.00;100845.22;4959905;28;20660;-77
2021/05/19 06:21:14;;;;;;;10.03;8.87;;;;;;;12.00;100.00;100843.88;4930160;28;20225;-76
2021/05/19 06:23:39;;;;;;;10.60;9.13;;;;;;;12.22;100.00;100844.38;4942228;28;20336;-75
2021/05/19 06:26:07;;;;;;;10.57;8.77;;;;;;;12.08;100.00;100851.47;4932967;28;20221;-76
2021/05/19 06:28:33;;;;;;;9.33;8.43;;;;;;;12.18;100.00;100852.28;4967025;28;20222;-75
2021/05/19 06:31:03;;;;;;;8.90;8.00;;;;;;;11.98;100.00;100852.31;4937884;28;20221;-77
2021/05/19 06:33:29;;;;;;;9.87;8.13;;;;;;;12.19;100.00;100853.06;4947417;28;20195;-76
2021/05/19 06:35:55;;;;;;;9.50;8.47;;;;;;;12.49;100.00;100845.59;4955384;28;20250;-76
2021/05/19 06:38:20;;;;;;;8.87;8.07;;;;;;;12.56;100.00;100852.34;4943272;28;20186;-74
2021/05/19 06:40:49;;;;;;;9.20;8.13;;;;;;;12.38;100.00;100860.34;4955735;28;20250;-77
2021/05/19 06:43:15;;;;;;;7.47;6.73;;;;;;;12.48;100.00;100852.94;4966496;28;20238;-76
2021/05/19 06:45:41;;;;;;;7.80;7.00;;;;;;;13.11;100.00;100850.13;4922555;29;20713;-76
2021/05/19 06:48:09;;;;;;;8.23;7.43;;;;;;;13.40;100.00;100857.28;4956698;28;20184;-75
2021/05/19 06:50:38;;;;;;;8.00;7.20;;;;;;;13.51;100.00;100851.44;4941893;28;20222;-76
2021/05/19 06:53:06;;;;;;;7.93;7.17;;;;;;;13.42;100.00;100843.34;4955378;29;20207;-76
2021/05/19 06:55:36;;;;;;;6.40;5.80;;;;;;;13.31;100.00;100856.25;4937235;29;20281;-75
2021/05/19 06:58:04;;;;;;;7.00;6.33;;;;;;;12.68;100.00;100854.78;4971411;29;20183;-76
2021/05/19 07:00:29;;;;;;;8.03;6.20;;;;;;;13.06;100.00;100852.09;4972685;28;20210;-74
2021/05/19 07:02:55;;;;;;;7.37;6.67;;;;;;;13.11;100.00;100847.41;4953818;29;20211;-76
2021/05/19 07:05:20;;;;;;;8.23;6.37;;;;;;;13.25;99.97;100843.75;4944031;28;20209;-77
2021/05/19 07:07:47;;;;;;;6.63;5.93;;;;;;;13.26;100.00;100841.84;4953444;28;20193;-75
2021/05/19 07:10:13;;;;;;;6.83;6.13;;;;;;;13.43;100.00;100850.44;4949268;28;20209;-75
2021/05/19 07:12:39;;;;;;;6.47;5.83;;;;;;;13.06;100.00;100847.47;4957633;29;20313;-75
2021/05/19 07:15:16;;;;;;;6.90;6.07;;;;;;;13.20;100.00;100845.72;4942641;28;20275;-76
2021/05/19 07:17:44;;;;;;;6.93;6.23;;;;;;;13.30;100.00;100851.09;4970843;28;20186;-76
2021/05/19 07:20:12;;;;;;;9.10;6.60;;;;;;;13.48;99.23;100852.03;4941628;28;20189;-77
2021/05/19 07:22:40;;;;;;;8.80;6.80;;;;;;;13.58;99.52;100856.56;4975251;28;20210;-74
2021/05/19 07:25:07;;;;;;;7.57;6.87;;;;;;;14.34;95.50;100859.03;4975863;28;20190;-75
2021/05/19 07:27:35;;;;;;;6.80;6.20;;;;;;;13.45;99.72;100858.03;4959063;28;20197;-77
2021/05/19 07:30:01;;;;;;;7.67;6.17;;;;;;;13.53;98.98;100859.34;4959833;28;20660;-75
2021/05/19 07:32:29;;;;;;;7.10;6.13;;;;;;;13.57;99.85;100858.50;4957164;28;20233;-76
2021/05/19 07:35:00;;;;;;;7.53;6.83;;;;;;;13.73;94.82;100862.69;4959313;28;20563;-74
2021/05/19 07:37:25;;;;;;;7.73;6.93;;;;;;;13.34;99.71;100863.88;4974083;28;20226;-75
2021/05/19 07:39:55;;;;;;;7.53;6.80;;;;;;;14.53;91.55;100857.19;4938897;29;20246;-75
2021/05/19 07:42:23;;;;;;;7.30;6.60;;;;;;;14.58;90.11;100860.69;4949945;28;20278;-76
2021/05/19 07:44:51;;;;;;;7.47;6.83;;;;;;;15.07;88.25;100859.97;4954861;29;20175;-76
2021/05/19 07:47:17;;;;;;;7.00;6.30;;;;;;;15.06;82.53;100863.81;4922397;29;20238;-77
2021/05/19 07:49:45;;;;;;;7.53;6.43;;;;;;;14.86;86.49;100857.81;4939114;29;20634;-76
2021/05/19 07:52:13;;;;;;;6.77;6.07;;;;;;;14.66;83.61;100851.81;4954231;28;20231;-75
2021/05/19 07:54:46;;;;;;;7.50;6.60;;;;;;;14.65;85.52;100850.16;4939051;28;20195;-75
2021/05/19 07:57:39;;;;;;;6.50;5.70;;;;;;;14.82;84.04;100858.72;4938136;29;20753;-75
2021/05/19 08:00:13;;;;;;;6.20;5.60;;;;;;;15.06;79.73;100858.31;4941116;29;20194;-75
2021/05/19 08:02:41;;;;;;;6.50;5.80;;;;;;;15.04;80.14;100857.81;4954608;28;20290;-76
2021/05/19 08:05:07;;;;;;;7.00;6.13;;;;;;;14.89;84.42;100857.22;4954525;28;20184;-76
2021/05/19 08:07:35;;;;;;;6.33;5.73;;;;;;;14.95;83.40;100855.25;4954498;28;20192;-76
2021/05/19 08:10:03;;;;;;;6.17;5.60;;;;;;;14.83;83.09;100852.13;4948743;28;20564;-77
2021/05/19 08:12:31;;;;;;;7.67;5.73;;;;;;;14.17;84.06;100858.72;4936525;29;20301;-76
2021/05/19 08:15:02;;;;;;;6.50;5.90;;;;;;;13.75;86.61;100857.75;4923058;29;20213;-75
2021/05/19 08:17:27;;;;;;;6.97;6.10;;;;;;;14.07;88.84;100867.03;4921875;29;20648;-76
2021/05/19 08:19:53;;;;;;;5.90;5.40;;;;;;;14.37;84.49;100859.28;4953499;29;20179;-75
2021/05/19 08:22:21;;;;;;;5.90;5.30;;;;;;;14.56;83.18;100862.91;4920687;28;20253;-75
2021/05/19 08:24:46;;;;;;;6.07;5.10;;;;;;;14.90;82.12;100855.31;4953906;29;20859;-75
2021/05/19 08:27:15;;;;;;;5.57;5.07;;;;;;;14.69;81.00;100856.69;4921118;29;20235;-76
2021/05/19 08:29:42;;;;;;;5.40;4.90;;;;;;;14.70;83.54;100852.84;4953073;28;20249;-76
2021/05/19 08:32:07;;;;;;;5.20;4.70;;;;;;;15.30;78.79;100853.59;4952407;28;20230;-76
2021/05/19 08:34:34;;;;;;;5.10;4.60;;;;;;;15.51;75.10;100849.41;4921437;29;20198;-76
2021/05/19 08:37:04;;;;;;;5.10;4.60;;;;;;;15.13;79.73;100856.06;4953163;28;20222;-74
2021/05/19 08:39:32;;;;;;;5.67;5.07;;;;;;;15.10;79.17;100853.88;4964864;28;20238;-75
2021/05/19 08:41:58;;;;;;;5.53;5.03;;;;;;;15.00;82.67;100853.25;4935860;29;20241;-75
2021/05/19 08:44:25;;;;;;;4.90;4.50;;;;;;;15.10;78.46;100848.41;4952692;29;20199;-74
2021/05/19 08:46:56;;;;;;;4.38;3.97;;;;;;;15.61;75.56;100855.53;4950875;28;20262;-75
2021/05/19 08:49:22;;;;;;;4.35;3.95;;;;;;;15.17;73.07;100853.56;4921498;29;20672;-78
2021/05/19 08:51:47;;;;;;;4.20;3.80;;;;;;;15.74;74.34;100856.69;4934821;29;20234;-75
2021/05/19 08:54:17;;;;;;;4.43;3.70;;;;;;;16.51;69.73;100844.50;4952728;29;20187;-75
2021/05/19 08:56:47;;;;;;;4.20;3.80;;;;;;;16.84;66.13;100837.72;4953135;28;20226;-76
2021/05/19 08:59:14;;;;;;;4.53;4.00;;;;;;;16.46;67.06;100846.53;4951246;28;20233;-75
2021/05/19 09:01:44;;;;;;;4.30;3.50;;;;;;;15.88;68.92;100861.91;4971257;28;20237;-76
2021/05/19 09:04:22;;;;;;;3.88;3.47;;;;;;;16.17;68.34;100849.56;4972584;28;20181;-76
2021/05/19 09:07:02;;;;;;;3.70;3.40;;;;;;;16.24;66.71;100846.44;4939347;28;20248;-77
2021/05/19 09:09:38;;;;;;;3.72;3.38;;;;;;;16.16;67.32;100847.13;4945001;28;20194;-75
2021/05/19 09:12:08;;;;;;;3.38;3.08;;;;;;;17.13;63.70;100847.22;4963055;28;20401;-76
2021/05/19 09:15:01;;;;;;;4.00;3.60;;;;;;;16.93;66.97;100852.34;4953956;28;20187;-76
2021/05/19 09:17:35;;;;;;;4.28;3.47;;;;;;;15.92;67.08;100862.91;4939604;29;20215;-76
2021/05/19 09:20:16;;;;;;;3.97;3.58;;;;;;;15.93;69.55;100856.34;4937751;29;20706;-76
2021/05/19 09:22:44;;;;;;;4.15;3.75;;;;;;;16.15;69.89;100856.44;4936349;29;20242;-79
2021/05/19 09:25:22;;;;;;;4.07;3.45;;;;;;;15.81;65.79;100856.00;4952151;28;20185;-75
2021/05/19 09:27:52;;;;;;;3.38;2.83;;;;;;;16.45;64.68;100855.88;4937638;29;20716;-75
2021/05/19 09:30:39;;;;;;;3.63;2.60;;;;;;;16.11;65.92;100860.09;4952117;28;20182;-76
2021/05/19 09:33:23;;;;;;;3.15;2.92;;;;;;;16.53;62.01;100857.91;4952763;29;20211;-75
2021/05/19 09:36:19;;;;;;;4.22;3.70;;;;;;;16.44;62.19;100859.72;4951839;29;20229;-76
2021/05/19 09:38:49;;;;;;;3.95;3.42;;;;;;;16.21;61.87;100860.75;4955588;28;20190;-75
2021/05/19 09:41:17;;;;;;;5.15;3.38;;;;;;;15.66;67.07;100854.63;4947198;29;20226;-75
2021/05/19 09:43:47;;;;;;;4.00;3.55;;;;;;;16.18;64.55;100858.63;4952396;28;20692;-75
2021/05/19 09:46:24;;;;;;;3.40;3.10;;;;;;;16.41;61.86;100860.34;4936698;29;20235;-75
2021/05/19 09:49:14;;;;;;;2.90;2.70;;;;;;;16.94;59.42;100849.31;4938063;29;20689;-76
2021/05/19 09:51:43;;;;;;;3.50;3.20;;;;;;;16.68;60.80;100859.22;4951698;28;20223;-76
2021/05/19 09:54:31;;;;;;;3.45;3.20;;;;;;;16.10;62.53;100856.56;4922140;29;20202;-76
2021/05/19 09:57:10;;;;;;;3.90;3.58;;;;;;;15.94;65.20;100866.16;4952472;28;20223;-76
2021/05/19 09:59:44;;;;;;;2.97;2.72;;;;;;;16.70;62.83;100853.41;4952252;29;20183;-75
2021/05/19 10:02:12;;;;;;;3.08;2.78;;;;;;;17.02;61.19;100851.31;4936243;28;20231;-74
2021/05/19 10:07:15;;;;;;;2.33;2.08;;;;;;;17.74;52.70;100838.78;4935913;29;20301;-76
2021/05/19 10:09:43;;;;;;;2.00;1.80;;;;;;;17.45;51.72;100840.41;4950494;28;20213;-77
2021/05/19 10:12:17;;;;;;;1.77;1.60;;;;;;;17.41;53.72;100839.38;4939588;28;20231;-77
2021/05/19 10:14:45;;;;;;;2.10;1.90;;;;;;;16.54;53.03;100843.88;4952448;29;20187;-77
2021/05/19 10:17:15;;;;;;;2.80;1.90;;;;;;;16.90;54.18;100831.81;4951164;28;20227;-76
2021/05/19 10:19:53;;;;;;;2.33;1.58;;;;;;;17.45;53.60;100832.16;4936228;29;20274;-74
2021/05/19 10:22:20;;;;;;;2.47;1.58;;;;;;;16.66;53.33;100842.22;4938911;29;20230;-75
2021/05/19 10:24:53;;;;;;;1.95;1.33;;;;;;;16.53;53.09;100841.44;4949600;28;20250;-74
2021/05/19 10:27:20;;;;;;;1.30;1.20;;;;;;;17.68;51.83;100824.69;4967405;28;20230;-74
2021/05/19 10:29:45;;;;;;;2.50;1.30;;;;;;;18.39;51.68;100818.59;4984513;28;20194;-75
2021/05/19 10:32:25;;;;;;;1.73;1.40;;;;;;;17.81;51.82;100827.34;4971451;28;20708;-77
2021/05/19 10:34:57;;;;;;;1.52;1.40;;;;;;;17.78;50.80;100811.47;4991030;28;20190;-77
2021/05/19 10:37:26;;;;;;;1.80;1.20;;;;;;;18.79;48.83;100818.19;4945083;28;20245;-76
2021/05/19 10:40:12;;;;;;;1.20;1.10;;;;;;;19.00;47.92;100816.44;4968309;28;20261;-75
2021/05/19 10:42:41;;;;;;;1.35;1.20;;;;;;;18.28;48.12;100828.25;4949700;29;20230;-74
2021/05/19 10:45:12;;;;;;;1.73;1.63;;;;;;;17.32;49.04;100826.69;4957080;28;20246;-74
2021/05/19 10:47:47;;;;;;;1.20;1.10;;;;;;;17.25;51.35;100839.25;4956667;29;20198;-75
2021/05/19 10:50:27;;;;;;;1.58;1.00;;;;;;;16.78;53.86;100823.31;4955454;28;20191;-75
2021/05/19 11:01:08;;;;;;;1.20;1.10;;;;;;;16.72;56.10;100818.22;4943526;28;20868;-76
2021/05/19 11:03:34;;;;;;;1.40;1.30;;;;;;;17.03;53.86;100822.72;4935861;28;20190;-74
2021/05/19 11:06:00;;;;;;;1.13;1.10;;;;;;;16.81;54.94;100819.13;4942609;28;20218;-74
2021/05/19 11:08:34;;;;;;;1.33;1.10;;;;;;;16.94;52.14;100810.88;4958645;28;20199;-76
2021/05/19 11:11:16;;;;;;;0.90;0.90;;;;;;;17.35;53.17;100802.19;4941818;28;20309;-75
2021/05/19 11:14:03;;;;;;;1.48;1.20;;;;;;;17.49;53.60;100805.69;4933442;28;20195;-77
2021/05/19 11:16:48;;;;;;;2.92;1.60;;;;;;;17.71;52.40;100804.81;4936102;28;20725;-75
2021/05/19 11:19:26;;;;;;;1.35;1.25;;;;;;;18.29;50.20;100794.09;4963121;28;20680;-77
2021/05/19 11:22:02;;;;;;;1.55;0.80;;;;;;;17.32;53.84;100801.19;4940335;28;20719;-76
2021/05/19 11:24:31;;;;;;;2.45;1.20;;;;;;;17.55;50.59;100798.91;4961177;28;20593;-75
2021/05/19 11:27:01;;;;;;;6.57;1.73;;;;;;;17.39;52.47;100797.69;4950206;28;20241;-76
2021/05/19 11:29:29;;;;;;;2.15;1.15;;;;;;;17.21;52.40;100795.13;4956494;28;20290;-74
2021/05/19 11:31:56;;;;;;;2.70;1.30;;;;;;;17.43;54.42;100786.88;4939185;28;20234;-75
2021/05/19 11:34:30;;;;;;;1.40;1.30;;;;;;;18.09;51.23;100787.56;4943067;28;20517;-75
2021/05/19 11:36:58;;;;;;;1.20;1.10;;;;;;;18.06;50.59;100786.25;4956576;28;20236;-75
2021/05/19 11:39:31;;;;;;;0.93;0.90;;;;;;;17.90;51.47;100795.22;4939823;28;20191;-77